Time;durP1;ratioP1;P1;durP2;ratioP2;P2;SDS_P1;SDS_P2;PMS_P1;PMS_P2;Temp;Humidity;BMP_temperature;BMP_pressure;BME280_temperature;BME280_humidity;BME280_pressure;Samples;Min_cycle;Max_cycle;Signal;HPM_P1;HPM_P2
2024/03/06 00:00:01;;;;;;;9.77;4.50;;;9.70;99.90;;;;;;5054190;28;20581;-55
2024/03/06 00:02:28;;;;;;;6.17;4.57;;;9.80;99.90;;;;;;5053801;28;20567;-57
2024/03/06 00:04:55;;;;;;;6.80;4.67;;;9.70;99.90;;;;;;5054350;28;20213;-55
2024/03/06 00:07:22;;;;;;;6.07;4.10;;;9.70;99.90;;;;;;5054094;28;20296;-55
2024/03/06 00:09:50;;;;;;;6.90;4.57;;;9.70;99.90;;;;;;5054170;28;20259;-57
2024/03/06 00:12:16;;;;;;;5.83;4.60;;;9.70;99.90;;;;;;5046002;28;20266;-60
2024/03/06 00:14:43;;;;;;;6.50;4.20;;;9.70;99.90;;;;;;5053601;28;20206;-55
2024/03/06 00:17:10;;;;;;;5.63;4.23;;;9.80;99.90;;;;;;5053936;28;20214;-57
2024/03/06 00:19:36;;;;;;;8.60;4.20;;;9.70;99.90;;;;;;5053791;28;20254;-59
2024/03/06 00:22:03;;;;;;;6.23;4.40;;;9.70;99.90;;;;;;5053847;28;20205;-58
2024/03/06 00:24:30;;;;;;;6.73;4.57;;;9.70;99.90;;;;;;5053525;28;20210;-59
2024/03/06 00:26:58;;;;;;;6.17;4.77;;;9.60;99.90;;;;;;5053627;28;20259;-60
2024/03/06 00:29:24;;;;;;;4.70;4.00;;;9.50;99.90;;;;;;5053512;28;20644;-59
2024/03/06 00:31:51;;;;;;;5.37;3.80;;;9.40;99.90;;;;;;5053290;28;20627;-59
2024/03/06 00:34:18;;;;;;;4.33;3.80;;;9.30;99.90;;;;;;5053372;28;20205;-59
2024/03/06 00:36:45;;;;;;;5.07;4.10;;;9.20;99.90;;;;;;5053537;28;20213;-58
2024/03/06 00:39:14;;;;;;;7.10;4.20;;;9.10;99.90;;;;;;5053481;28;20222;-59
2024/03/06 00:41:41;;;;;;;4.50;4.10;;;9.00;99.90;;;;;;5053433;28;20210;-59
2024/03/06 00:44:09;;;;;;;8.50;5.00;;;9.00;99.90;;;;;;5052872;28;20237;-59
2024/03/06 00:46:36;;;;;;;5.77;4.37;;;9.00;99.90;;;;;;5053572;28;20586;-60
2024/03/06 00:49:03;;;;;;;7.20;4.47;;;9.00;99.90;;;;;;5053093;28;20631;-60
2024/03/06 00:51:30;;;;;;;6.33;4.50;;;9.00;99.90;;;;;;5053228;28;20263;-58
2024/03/06 00:53:57;;;;;;;5.50;4.50;;;9.00;99.90;;;;;;5053181;28;20625;-58
2024/03/06 00:56:23;;;;;;;4.97;4.03;;;9.00;99.90;;;;;;5053011;28;20635;-60
2024/03/06 00:58:50;;;;;;;4.73;4.17;;;9.00;99.90;;;;;;5052867;28;20614;-58
2024/03/06 01:01:18;;;;;;;5.07;4.00;;;9.00;99.90;;;;;;5053099;28;20691;-60
2024/03/06 01:03:45;;;;;;;4.90;4.10;;;9.00;99.90;;;;;;5052938;28;20212;-61
2024/03/06 01:06:12;;;;;;;6.83;4.47;;;9.00;99.90;;;;;;5052927;28;20256;-59
2024/03/06 01:08:38;;;;;;;5.93;4.60;;;9.00;99.90;;;;;;5052911;28;20225;-59
2024/03/06 01:11:05;;;;;;;5.73;4.23;;;8.90;99.90;;;;;;5052604;28;20205;-59
2024/03/06 01:13:32;;;;;;;5.80;4.33;;;8.90;99.90;;;;;;5052507;28;20256;-59
2024/03/06 01:15:58;;;;;;;6.17;4.43;;;9.00;99.90;;;;;;5052717;28;20602;-60
2024/03/06 01:18:26;;;;;;;10.17;4.20;;;8.90;99.90;;;;;;5052717;28;20232;-60
2024/03/06 01:20:53;;;;;;;5.50;4.60;;;8.90;99.90;;;;;;5052486;28;20202;-59
2024/03/06 01:23:20;;;;;;;8.27;4.43;;;8.90;99.90;;;;;;5052110;28;20205;-59
2024/03/06 01:25:46;;;;;;;7.73;4.40;;;8.90;99.90;;;;;;5052490;28;20271;-61
2024/03/06 01:28:13;;;;;;;5.87;3.77;;;8.90;99.90;;;;;;5052255;28;20637;-61
2024/03/06 01:30:40;;;;;;;6.73;4.40;;;8.90;99.90;;;;;;5052038;28;20300;-61
2024/03/06 01:33:07;;;;;;;4.57;3.70;;;8.90;99.90;;;;;;5052111;28;20275;-59
2024/03/06 01:35:35;;;;;;;5.93;4.10;;;8.80;99.90;;;;;;5052370;28;20300;-58
2024/03/06 01:38:02;;;;;;;7.40;4.00;;;8.80;99.90;;;;;;5052378;28;20222;-59
2024/03/06 01:40:29;;;;;;;5.37;4.20;;;8.70;99.90;;;;;;5052323;28;20263;-58
2024/03/06 01:42:56;;;;;;;4.37;3.97;;;8.70;99.90;;;;;;5052245;28;20292;-59
2024/03/06 01:45:22;;;;;;;8.50;4.90;;;8.60;99.90;;;;;;5052320;28;20229;-59
2024/03/06 01:47:50;;;;;;;5.40;4.50;;;8.60;99.90;;;;;;5052176;28;20233;-59
2024/03/06 01:50:17;;;;;;;7.77;4.53;;;8.60;99.90;;;;;;5052466;28;20209;-59
2024/03/06 01:52:46;;;;;;;5.20;4.00;;;8.60;99.90;;;;;;5051696;28;20621;-60
2024/03/06 01:55:15;;;;;;;6.27;4.87;;;8.60;99.90;;;;;;5051966;28;20631;-60
2024/03/06 01:57:42;;;;;;;5.30;3.97;;;8.60;99.90;;;;;;5052156;28;20229;-60
2024/03/06 02:00:13;;;;;;;7.03;4.70;;;8.70;99.90;;;;;;5051853;28;20209;-58
2024/03/06 02:02:41;;;;;;;6.13;4.47;;;8.70;99.90;;;;;;5051691;28;20288;-59
2024/03/06 02:05:08;;;;;;;5.07;4.27;;;8.80;99.90;;;;;;5051789;28;20213;-60
2024/03/06 02:07:36;;;;;;;7.60;4.67;;;8.80;99.90;;;;;;5051806;28;20664;-60
2024/03/06 02:10:04;;;;;;;8.53;4.57;;;8.80;99.90;;;;;;5051935;28;20205;-60
2024/03/06 02:12:31;;;;;;;6.63;4.70;;;8.90;99.90;;;;;;5051597;28;20678;-60
2024/03/06 02:14:57;;;;;;;7.27;4.30;;;9.00;99.90;;;;;;5051568;28;20218;-59
2024/03/06 02:17:25;;;;;;;6.67;4.77;;;9.00;99.90;;;;;;5051699;28;20232;-59
2024/03/06 02:19:52;;;;;;;9.57;4.80;;;9.00;99.90;;;;;;5051752;28;20209;-60
2024/03/06 02:22:20;;;;;;;5.53;4.20;;;9.10;99.90;;;;;;5043660;28;20217;-60
2024/03/06 02:24:49;;;;;;;6.97;4.37;;;9.10;99.90;;;;;;5051560;28;20205;-61
2024/03/06 02:27:16;;;;;;;7.90;4.03;;;9.20;99.90;;;;;;5051313;28;20733;-59
2024/03/06 02:29:43;;;;;;;4.27;3.87;;;9.20;99.90;;;;;;5051642;28;20205;-61
2024/03/06 02:32:10;;;;;;;4.10;3.60;;;9.30;99.90;;;;;;5051733;28;20245;-58
2024/03/06 02:34:37;;;;;;;5.93;3.30;;;9.30;99.90;;;;;;5051422;28;20229;-61
2024/03/06 02:37:04;;;;;;;4.50;3.80;;;9.20;99.90;;;;;;5051509;28;20706;-59
2024/03/06 02:39:32;;;;;;;4.77;3.60;;;9.30;99.90;;;;;;5051424;28;20232;-61
2024/03/06 02:41:58;;;;;;;4.03;3.23;;;9.30;99.90;;;;;;5051728;28;20202;-59
2024/03/06 02:44:25;;;;;;;4.57;3.40;;;9.30;99.90;;;;;;5055584;28;20201;-60
2024/03/06 02:46:52;;;;;;;8.13;5.37;;;9.20;99.90;;;;;;5055625;28;20267;-59
2024/03/06 02:49:19;;;;;;;7.20;4.77;;;9.00;99.90;;;;;;5047179;28;20230;-60
2024/03/06 02:51:46;;;;;;;6.13;4.70;;;8.80;99.90;;;;;;5055623;28;20275;-60
2024/03/06 02:54:13;;;;;;;6.53;4.83;;;8.80;99.90;;;;;;5055119;28;20225;-60
2024/03/06 02:56:41;;;;;;;8.03;5.30;;;8.90;99.90;;;;;;5055659;28;20267;-60
2024/03/06 02:59:08;;;;;;;5.87;4.50;;;8.90;99.90;;;;;;5055093;28;20480;-60
2024/03/06 03:01:34;;;;;;;6.83;4.53;;;8.90;99.90;;;;;;5055155;28;20208;-60
2024/03/06 03:04:02;;;;;;;6.13;4.30;;;9.00;99.90;;;;;;5054777;28;20671;-60
2024/03/06 03:06:29;;;;;;;5.17;4.67;;;9.00;99.90;;;;;;5055196;28;20237;-60
2024/03/06 03:08:56;;;;;;;7.90;4.33;;;9.00;99.90;;;;;;5054932;28;20729;-60
2024/03/06 03:11:22;;;;;;;5.30;4.57;;;9.10;99.90;;;;;;5055176;28;20205;-60
2024/03/06 03:13:50;;;;;;;7.10;4.90;;;9.10;99.90;;;;;;5054726;28;20226;-60
2024/03/06 03:16:18;;;;;;;7.57;4.93;;;9.00;99.90;;;;;;5054727;28;20255;-60
2024/03/06 03:18:45;;;;;;;5.53;4.77;;;9.00;99.90;;;;;;5054687;28;20608;-60
2024/03/06 03:21:12;;;;;;;6.13;4.70;;;9.10;99.90;;;;;;5054939;28;20232;-60
2024/03/06 03:23:39;;;;;;;6.13;4.80;;;9.20;99.90;;;;;;5054656;28;20288;-59
2024/03/06 03:26:06;;;;;;;6.07;4.83;;;9.20;99.90;;;;;;5054867;28;20263;-60
2024/03/06 03:28:33;;;;;;;5.93;4.77;;;9.20;99.90;;;;;;5054546;28;20229;-60
2024/03/06 03:31:01;;;;;;;7.37;5.73;;;9.10;99.90;;;;;;5054570;28;20206;-59
2024/03/06 03:33:28;;;;;;;6.80;4.70;;;9.00;99.90;;;;;;5054143;28;20220;-59
2024/03/06 03:35:54;;;;;;;7.77;4.80;;;9.00;99.90;;;;;;5054576;28;20206;-59
2024/03/06 03:38:21;;;;;;;6.83;4.73;;;8.90;99.90;;;;;;5054549;28;20267;-59
2024/03/06 03:40:47;;;;;;;7.60;4.77;;;8.90;99.90;;;;;;5054443;28;20201;-59
2024/03/06 03:43:14;;;;;;;6.20;4.93;;;9.00;99.90;;;;;;5053997;28;20260;-59
2024/03/06 03:45:41;;;;;;;6.17;4.40;;;8.90;99.90;;;;;;5054422;28;20212;-59
2024/03/06 03:48:09;;;;;;;6.67;4.87;;;8.90;99.90;;;;;;5072245;22;20241;-63
2024/03/06 03:50:36;;;;;;;5.93;4.53;;;8.90;99.90;;;;;;5026275;28;20391;-64
2024/03/06 03:53:02;;;;;;;5.30;4.60;;;8.80;99.90;;;;;;5024551;28;20614;-64
2024/03/06 03:55:29;;;;;;;5.60;4.40;;;8.90;99.90;;;;;;5022637;28;20199;-65
2024/03/06 03:57:56;;;;;;;6.23;5.00;;;9.00;99.90;;;;;;5022275;28;20285;-60
2024/03/06 04:00:23;;;;;;;8.20;6.20;;;9.00;99.90;;;;;;5026087;28;20211;-61
2024/03/06 04:02:50;;;;;;;7.07;5.53;;;9.00;99.90;;;;;;5025728;28;20668;-63
2024/03/06 04:05:18;;;;;;;6.63;5.60;;;9.10;99.90;;;;;;5023019;28;20227;-62
2024/03/06 04:07:45;;;;;;;6.77;5.23;;;9.10;99.90;;;;;;5022248;28;20560;-62
2024/03/06 04:10:12;;;;;;;7.97;4.93;;;9.20;99.90;;;;;;5024452;28;20254;-62
2024/03/06 04:12:39;;;;;;;7.67;5.23;;;9.20;99.90;;;;;;5025157;28;20260;-62
2024/03/06 04:15:07;;;;;;;5.87;4.60;;;9.20;99.90;;;;;;5024267;28;20306;-61
2024/03/06 04:17:35;;;;;;;5.93;4.30;;;9.20;99.90;;;;;;5022395;28;20207;-62
2024/03/06 04:20:02;;;;;;;6.73;5.70;;;9.30;99.90;;;;;;5022870;28;20203;-61
2024/03/06 04:22:30;;;;;;;6.87;5.40;;;9.30;99.90;;;;;;5025208;28;20558;-62
2024/03/06 04:24:58;;;;;;;15.00;12.57;;;9.30;99.90;;;;;;5025198;28;20205;-61
2024/03/06 04:27:25;;;;;;;8.10;5.93;;;9.30;99.90;;;;;;5022261;28;20227;-61
2024/03/06 04:29:52;;;;;;;6.60;4.97;;;9.40;99.90;;;;;;5022136;28;20229;-61
2024/03/06 04:32:19;;;;;;;8.90;5.00;;;9.40;99.90;;;;;;5024978;28;20586;-62
2024/03/06 04:34:46;;;;;;;5.40;4.67;;;9.40;99.90;;;;;;5024884;28;20226;-62
2024/03/06 04:37:13;;;;;;;6.57;5.07;;;9.40;99.90;;;;;;5022932;28;20198;-61
2024/03/06 04:39:41;;;;;;;7.77;4.70;;;9.40;99.90;;;;;;5021612;28;20227;-62
2024/03/06 04:42:07;;;;;;;6.53;5.57;;;9.30;99.90;;;;;;5022940;28;20236;-62
2024/03/06 04:44:35;;;;;;;6.03;5.40;;;9.40;99.90;;;;;;5024946;28;20209;-61
2024/03/06 04:47:01;;;;;;;7.67;5.67;;;9.40;99.90;;;;;;5024332;28;20264;-62
2024/03/06 04:49:28;;;;;;;6.93;5.80;;;9.40;99.90;;;;;;5021576;28;20296;-63
2024/03/06 04:51:55;;;;;;;6.03;5.10;;;9.40;99.90;;;;;;5021404;28;20627;-63
2024/03/06 04:54:21;;;;;;;5.80;5.00;;;9.40;99.90;;;;;;5024190;28;20215;-63
2024/03/06 04:56:49;;;;;;;6.63;5.13;;;9.40;99.90;;;;;;5024852;28;20213;-63
2024/03/06 04:59:16;;;;;;;6.07;5.30;;;9.40;99.90;;;;;;5022173;28;20241;-62
2024/03/06 05:01:43;;;;;;;6.40;5.63;;;9.40;99.90;;;;;;5021351;28;20203;-63
2024/03/06 05:04:10;;;;;;;7.93;5.73;;;9.40;99.90;;;;;;5022729;28;20381;-64
2024/03/06 05:06:37;;;;;;;6.50;5.43;;;9.40;99.90;;;;;;5023771;28;20229;-62
2024/03/06 05:09:05;;;;;;;9.17;5.20;;;9.50;99.90;;;;;;5023633;28;20230;-62
2024/03/06 05:11:32;;;;;;;6.53;5.20;;;9.50;99.90;;;;;;5020817;28;20618;-62
2024/03/06 05:14:00;;;;;;;7.20;5.23;;;9.50;99.90;;;;;;5020761;28;20223;-63
2024/03/06 05:16:27;;;;;;;7.43;5.20;;;9.50;99.90;;;;;;5024545;28;20213;-63
2024/03/06 05:18:54;;;;;;;6.43;4.83;;;9.50;99.90;;;;;;5024334;28;20261;-63
2024/03/06 05:21:22;;;;;;;6.10;5.00;;;9.50;99.90;;;;;;5021049;28;20217;-63
2024/03/06 05:23:48;;;;;;;6.70;5.17;;;9.50;99.90;;;;;;5020738;28;20199;-62
2024/03/06 05:26:15;;;;;;;7.20;5.53;;;9.40;99.90;;;;;;5022973;28;20214;-64
2024/03/06 05:28:42;;;;;;;7.27;5.47;;;9.40;99.90;;;;;;5024219;28;20313;-63
2024/03/06 05:31:18;;;;;;;8.13;5.07;;;9.30;99.90;;;;;;5022717;28;20209;-63
2024/03/06 05:33:45;;;;;;;7.40;5.37;;;9.30;99.90;;;;;;5020397;28;20237;-63
2024/03/06 05:36:13;;;;;;;10.03;5.00;;;9.30;99.90;;;;;;5022751;28;20286;-63
2024/03/06 05:38:40;;;;;;;6.27;5.10;;;9.40;99.90;;;;;;5023956;28;20313;-63
2024/03/06 05:41:08;;;;;;;5.43;4.83;;;9.40;99.90;;;;;;5022879;28;20206;-63
2024/03/06 05:43:35;;;;;;;7.80;5.77;;;9.50;99.90;;;;;;5020476;28;20522;-63
2024/03/06 05:46:01;;;;;;;6.50;5.23;;;9.40;99.90;;;;;;5020655;28;20203;-63
2024/03/06 05:48:29;;;;;;;8.10;6.20;;;9.50;99.90;;;;;;5023483;28;20313;-63
2024/03/06 05:50:57;;;;;;;8.57;6.30;;;9.50;99.90;;;;;;5023971;28;20232;-63
2024/03/06 05:53:23;;;;;;;7.97;5.87;;;9.50;99.90;;;;;;5020188;28;20230;-63
2024/03/06 05:55:50;;;;;;;8.07;6.67;;;9.50;99.90;;;;;;5020299;28;20223;-63
2024/03/06 05:58:17;;;;;;;9.70;6.70;;;9.50;99.90;;;;;;5022732;28;20234;-63
2024/03/06 06:00:43;;;;;;;9.30;6.33;;;9.50;99.90;;;;;;5023726;28;20289;-62
2024/03/06 06:03:11;;;;;;;7.60;6.50;;;9.50;99.90;;;;;;5021937;28;20237;-65
2024/03/06 06:05:39;;;;;;;9.00;6.87;;;9.50;99.90;;;;;;5020272;28;20815;-62
2024/03/06 06:08:06;;;;;;;9.10;6.63;;;9.40;99.90;;;;;;5020859;28;20720;-62
2024/03/06 06:10:33;;;;;;;7.30;5.77;;;9.40;99.90;;;;;;5023658;28;20675;-62
2024/03/06 06:13:00;;;;;;;8.87;5.83;;;9.30;99.90;;;;;;5023142;28;20641;-63
2024/03/06 06:15:27;;;;;;;10.43;7.77;;;9.30;99.90;;;;;;5020115;28;20215;-61
2024/03/06 06:17:53;;;;;;;9.00;6.50;;;9.40;99.90;;;;;;5019861;28;20553;-60
2024/03/06 06:20:20;;;;;;;10.20;6.10;;;9.40;99.90;;;;;;5015141;28;20210;-61
2024/03/06 06:22:48;;;;;;;9.20;5.70;;;9.40;99.90;;;;;;5022970;28;20668;-62
2024/03/06 06:25:16;;;;;;;7.90;6.03;;;9.40;99.90;;;;;;5023447;28;20640;-60
2024/03/06 06:27:42;;;;;;;9.17;6.33;;;9.50;99.90;;;;;;5023352;28;20294;-62
2024/03/06 06:30:11;;;;;;;7.17;5.77;;;9.50;99.90;;;;;;5023442;28;20727;-62
2024/03/06 06:32:38;;;;;;;8.17;5.50;;;9.60;99.90;;;;;;5018300;28;20255;-61
2024/03/06 06:35:05;;;;;;;8.47;6.03;;;9.60;99.90;;;;;;5020486;28;20215;-61
2024/03/06 06:37:32;;;;;;;11.23;6.43;;;9.60;99.90;;;;;;5023354;28;20695;-60
2024/03/06 06:40:02;;;;;;;9.77;6.00;;;9.60;99.90;;;;;;5022979;28;20638;-61
2024/03/06 06:42:29;;;;;;;9.07;6.30;;;9.70;99.90;;;;;;5019872;28;20569;-60
2024/03/06 06:44:56;;;;;;;6.70;5.80;;;9.60;99.90;;;;;;5020062;28;20294;-60
2024/03/06 06:47:23;;;;;;;8.07;6.23;;;9.60;99.90;;;;;;5031263;28;20641;-61
2024/03/06 06:49:50;;;;;;;8.10;5.60;;;9.60;99.90;;;;;;5016724;28;20234;-61
2024/03/06 06:52:17;;;;;;;7.03;4.90;;;9.50;99.90;;;;;;5011709;28;20203;-60
2024/03/06 06:54:43;;;;;;;6.10;5.20;;;9.50;99.90;;;;;;5011318;28;20222;-61
2024/03/06 06:57:11;;;;;;;9.43;5.37;;;9.60;99.90;;;;;;5012049;28;20207;-60
2024/03/06 06:59:38;;;;;;;6.80;5.10;;;9.60;99.90;;;;;;5011935;28;20379;-60
2024/03/06 07:02:05;;;;;;;6.50;5.10;;;9.70;99.90;;;;;;5011869;28;20634;-60
2024/03/06 07:04:32;;;;;;;7.17;5.20;;;9.70;99.90;;;;;;5011544;28;20241;-59
2024/03/06 07:06:59;;;;;;;6.70;4.73;;;9.80;99.90;;;;;;5012160;28;20285;-61
2024/03/06 07:09:29;;;;;;;6.57;4.97;;;9.90;99.90;;;;;;5011634;28;20226;-61
2024/03/06 07:11:56;;;;;;;8.73;5.17;;;9.90;99.90;;;;;;5011941;28;20215;-60
2024/03/06 07:14:24;;;;;;;7.67;5.10;;;9.90;99.90;;;;;;5011030;28;20784;-60
2024/03/06 07:16:51;;;;;;;5.93;5.17;;;9.90;99.90;;;;;;5011661;28;20254;-61
2024/03/06 07:19:17;;;;;;;8.80;6.00;;;9.90;99.90;;;;;;5011928;28;20226;-60
2024/03/06 07:21:45;;;;;;;7.20;4.63;;;9.90;99.90;;;;;;5011500;28;20237;-60
2024/03/06 07:24:12;;;;;;;6.10;4.93;;;10.00;99.90;;;;;;5011284;28;20234;-60
2024/03/06 07:26:38;;;;;;;9.67;6.03;;;10.10;99.90;;;;;;5011728;28;20218;-62
2024/03/06 07:29:12;;;;;;;6.00;4.30;;;10.20;99.90;;;;;;5013325;28;20620;-61
2024/03/06 07:31:40;;;;;;;7.83;4.67;;;10.10;99.90;;;;;;5015217;28;20211;-65
2024/03/06 07:34:08;;;;;;;5.67;4.10;;;10.20;99.90;;;;;;5014666;28;20699;-62
2024/03/06 07:36:35;;;;;;;7.07;4.83;;;10.30;99.90;;;;;;5014766;28;20591;-62
2024/03/06 07:39:02;;;;;;;5.00;4.40;;;10.20;99.90;;;;;;5015049;28;20322;-62
2024/03/06 07:41:29;;;;;;;8.00;5.80;;;10.20;99.90;;;;;;5015205;28;20218;-63
2024/03/06 07:43:56;;;;;;;7.60;4.80;;;10.20;99.90;;;;;;5014770;28;20218;-64
2024/03/06 07:46:23;;;;;;;6.37;5.00;;;10.30;99.90;;;;;;5014913;28;20290;-63
2024/03/06 07:48:51;;;;;;;8.13;5.00;;;10.20;99.90;;;;;;5014640;28;20301;-62
2024/03/06 07:51:18;;;;;;;6.20;4.80;;;10.20;99.90;;;;;;5014569;28;20207;-61
2024/03/06 07:53:44;;;;;;;7.00;5.03;;;10.20;99.90;;;;;;5014644;28;20206;-62
2024/03/06 07:56:12;;;;;;;6.40;5.13;;;10.30;99.90;;;;;;5014745;28;20607;-62
2024/03/06 07:58:39;;;;;;;6.03;4.90;;;10.10;99.90;;;;;;5014670;28;20675;-62
2024/03/06 08:01:07;;;;;;;6.57;5.40;;;10.00;99.90;;;;;;5014688;28;20406;-62
2024/03/06 08:03:34;;;;;;;7.50;5.53;;;9.90;99.90;;;;;;5014189;28;20265;-62
2024/03/06 08:06:03;;;;;;;7.47;5.37;;;9.90;99.90;;;;;;5014332;28;20203;-60
2024/03/06 08:08:30;;;;;;;6.57;5.70;;;9.60;99.90;;;;;;5014581;28;20285;-63
2024/03/06 08:10:57;;;;;;;10.50;6.60;;;9.40;99.90;;;;;;5014280;28;20619;-60
2024/03/06 08:13:23;;;;;;;9.60;6.33;;;9.30;99.90;;;;;;5014202;28;20203;-61
2024/03/06 08:15:51;;;;;;;9.27;5.70;;;9.30;99.90;;;;;;5014143;28;20227;-60
2024/03/06 08:18:17;;;;;;;7.27;5.67;;;9.40;99.90;;;;;;5014101;28;20321;-60
2024/03/06 08:20:44;;;;;;;8.40;5.93;;;9.40;99.90;;;;;;5014507;28;20257;-59
2024/03/06 08:23:12;;;;;;;7.93;6.40;;;9.40;99.90;;;;;;5014147;28;20210;-60
2024/03/06 08:25:39;;;;;;;10.47;6.30;;;9.40;99.90;;;;;;5014290;28;20253;-60
2024/03/06 08:28:06;;;;;;;6.90;6.03;;;9.40;99.90;;;;;;5016877;28;20378;-63
2024/03/06 08:30:33;;;;;;;10.20;6.70;;;9.60;99.90;;;;;;5033338;28;20209;-60
2024/03/06 08:33:00;;;;;;;8.27;6.00;;;9.50;99.90;;;;;;5033434;28;20218;-62
2024/03/06 08:35:26;;;;;;;7.03;5.70;;;9.50;99.90;;;;;;5033825;28;20226;-60
2024/03/06 08:37:53;;;;;;;9.17;6.60;;;9.40;99.90;;;;;;5033745;28;20272;-59
2024/03/06 08:40:23;;;;;;;6.87;5.97;;;9.30;99.90;;;;;;5033589;28;20211;-59
2024/03/06 08:42:50;;;;;;;8.30;5.83;;;9.20;99.90;;;;;;5033194;28;20580;-66
2024/03/06 08:45:17;;;;;;;13.10;6.47;;;9.30;99.90;;;;;;5032984;28;20206;-58
2024/03/06 08:47:44;;;;;;;6.60;5.87;;;9.40;99.90;;;;;;5033242;28;20209;-59
2024/03/06 08:50:11;;;;;;;9.97;6.70;;;9.50;99.90;;;;;;5033836;28;20218;-60
2024/03/06 08:52:39;;;;;;;8.57;5.60;;;9.60;99.90;;;;;;5033392;28;20211;-58
2024/03/06 08:55:07;;;;;;;9.57;6.63;;;9.60;99.90;;;;;;5033484;28;20646;-58
2024/03/06 08:57:35;;;;;;;6.83;5.90;;;9.70;99.90;;;;;;5033352;28;20217;-59
2024/03/06 09:00:02;;;;;;;8.00;5.73;;;9.90;99.90;;;;;;5033392;28;20206;-60
2024/03/06 09:02:29;;;;;;;8.00;6.10;;;9.90;99.90;;;;;;5033222;28;20206;-61
2024/03/06 09:04:55;;;;;;;7.07;5.80;;;9.90;99.90;;;;;;5033325;28;20249;-59
2024/03/06 09:07:23;;;;;;;6.17;5.13;;;10.00;99.90;;;;;;5033113;28;20264;-60
2024/03/06 09:09:50;;;;;;;6.63;5.43;;;9.90;99.90;;;;;;5033088;28;20230;-59
2024/03/06 09:12:17;;;;;;;8.33;5.43;;;9.90;99.90;;;;;;5032990;28;20210;-61
2024/03/06 09:14:45;;;;;;;7.07;6.20;;;9.60;99.90;;;;;;5033079;28;20600;-61
2024/03/06 09:17:14;;;;;;;7.93;5.70;;;9.60;99.90;;;;;;5033111;28;20213;-61
2024/03/06 09:19:41;;;;;;;7.83;5.40;;;9.60;99.90;;;;;;5032991;28;20266;-61
2024/03/06 09:22:08;;;;;;;7.60;5.63;;;9.70;99.90;;;;;;5032852;28;20229;-60
2024/03/06 09:24:37;;;;;;;8.60;6.23;;;9.60;99.90;;;;;;5032627;28;20210;-63
2024/03/06 09:27:04;;;;;;;7.00;5.70;;;9.40;99.90;;;;;;5032772;28;20206;-61
2024/03/06 09:29:31;;;;;;;8.63;6.33;;;9.40;99.90;;;;;;5032987;28;20223;-60
2024/03/06 09:32:00;;;;;;;11.00;6.60;;;9.40;99.90;;;;;;5032534;28;20210;-61
2024/03/06 09:34:27;;;;;;;7.07;6.23;;;9.40;99.90;;;;;;5032469;28;20213;-60
2024/03/06 09:36:55;;;;;;;9.90;6.43;;;9.40;99.90;;;;;;5032510;28;20707;-61
2024/03/06 09:39:23;;;;;;;8.13;6.33;;;9.30;99.90;;;;;;5032966;28;20222;-61
2024/03/06 09:41:50;;;;;;;8.77;6.70;;;9.60;99.90;;;;;;5032480;28;20214;-61
2024/03/06 09:44:17;;;;;;;9.17;6.83;;;9.60;99.90;;;;;;5032349;28;20206;-61
2024/03/06 09:46:45;;;;;;;11.93;6.90;;;9.40;99.90;;;;;;5032426;28;20676;-61
2024/03/06 09:49:15;;;;;;;9.83;7.33;;;9.20;99.90;;;;;;5032549;28;20265;-60
2024/03/06 09:51:45;;;;;;;9.43;7.33;;;9.10;99.90;;;;;;5031856;28;20206;-60
2024/03/06 09:54:14;;;;;;;10.10;8.20;;;9.00;99.90;;;;;;5031982;28;20241;-61
2024/03/06 09:56:42;;;;;;;10.20;7.47;;;9.00;99.90;;;;;;5032325;28;20230;-61
2024/03/06 09:59:08;;;;;;;8.87;7.23;;;9.10;99.90;;;;;;5032215;28;20650;-60
2024/03/06 10:01:40;;;;;;;9.17;7.17;;;9.10;99.90;;;;;;5032267;28;20205;-59
2024/03/06 10:04:20;;;;;;;10.70;8.13;;;9.10;99.90;;;;;;5031922;28;20289;-59
2024/03/06 10:06:47;;;;;;;9.20;8.17;;;9.10;99.90;;;;;;5032148;28;20289;-58
2024/03/06 10:09:17;;;;;;;9.87;7.93;;;9.00;99.90;;;;;;5032180;28;20226;-59
2024/03/06 10:11:44;;;;;;;9.37;8.33;;;9.10;99.90;;;;;;5032155;28;20210;-60
2024/03/06 10:14:11;;;;;;;11.93;8.73;;;9.20;99.90;;;;;;5031780;28;20210;-59
2024/03/06 10:16:38;;;;;;;11.07;8.23;;;9.60;99.90;;;;;;5032130;28;20226;-59
2024/03/06 10:19:20;;;;;;;11.97;8.97;;;9.90;99.90;;;;;;5031857;28;20255;-59
2024/03/06 10:21:49;;;;;;;9.40;8.27;;;10.30;99.90;;;;;;5032050;28;20210;-60
2024/03/06 10:24:20;;;;;;;9.17;8.10;;;10.40;99.90;;;;;;5032686;28;20256;-59
2024/03/06 10:26:46;;;;;;;10.17;8.47;;;10.20;99.90;;;;;;5032553;28;20285;-59
2024/03/06 10:29:18;;;;;;;9.80;7.97;;;10.10;99.90;;;;;;5032165;28;20317;-59
2024/03/06 10:31:52;;;;;;;9.67;8.10;;;10.20;99.90;;;;;;5032186;28;20206;-60
2024/03/06 10:34:20;;;;;;;10.17;8.63;;;10.10;99.90;;;;;;5031800;28;20213;-59
2024/03/06 10:36:54;;;;;;;9.63;8.27;;;9.90;99.90;;;;;;5031758;28;20262;-60
2024/03/06 10:39:21;;;;;;;12.23;7.63;;;9.90;99.90;;;;;;5031860;28;20230;-59
2024/03/06 10:41:52;;;;;;;11.00;8.30;;;9.90;99.90;;;;;;5031797;28;20684;-59
2024/03/06 10:44:22;;;;;;;10.33;8.77;;;9.80;99.90;;;;;;5031385;28;20214;-61
2024/03/06 10:46:57;;;;;;;10.27;8.50;;;10.00;99.90;;;;;;5031873;28;20293;-60
2024/03/06 10:49:27;;;;;;;10.70;8.77;;;9.90;99.90;;;;;;5031394;28;20237;-60
2024/03/06 10:51:58;;;;;;;10.30;8.60;;;9.90;99.90;;;;;;5031639;28;20591;-60
2024/03/06 10:54:29;;;;;;;10.67;9.20;;;10.10;99.90;;;;;;5031345;28;20237;-59
2024/03/06 10:56:56;;;;;;;11.20;9.17;;;10.10;99.90;;;;;;5031582;28;20317;-60
2024/03/06 10:59:27;;;;;;;12.20;8.50;;;10.20;99.90;;;;;;5031637;28;20226;-60
2024/03/06 11:01:55;;;;;;;10.00;9.00;;;10.20;99.90;;;;;;5031706;28;20306;-58
2024/03/06 11:04:23;;;;;;;11.17;8.67;;;10.30;99.90;;;;;;5033606;28;20210;-58
2024/03/06 11:06:51;;;;;;;11.13;8.87;;;10.50;99.90;;;;;;5035460;28;20213;-58
2024/03/06 11:09:18;;;;;;;10.10;8.30;;;10.70;99.90;;;;;;5035482;28;20230;-58
2024/03/06 11:11:49;;;;;;;10.37;8.17;;;10.90;99.90;;;;;;5035698;28;20595;-58
2024/03/06 11:14:16;;;;;;;11.30;8.73;;;11.00;99.90;;;;;;5034936;28;20218;-59
2024/03/06 11:17:02;;;;;;;14.00;9.13;;;11.20;99.90;;;;;;5035003;28;20230;-58
2024/03/06 11:19:29;;;;;;;9.87;8.07;;;11.30;99.90;;;;;;5035009;28;20320;-58
2024/03/06 11:21:57;;;;;;;11.83;9.00;;;11.20;99.90;;;;;;5034968;28;20596;-58
2024/03/06 11:24:24;;;;;;;10.87;8.37;;;11.10;99.90;;;;;;5034822;28;20210;-61
2024/03/06 11:26:59;;;;;;;9.87;8.30;;;11.10;99.90;;;;;;5034991;28;20214;-58
2024/03/06 11:29:29;;;;;;;10.37;8.70;;;11.00;99.90;;;;;;5034920;28;20229;-58
2024/03/06 11:32:12;;;;;;;10.90;8.90;;;11.00;99.90;;;;;;5034601;28;20210;-58
2024/03/06 11:34:39;;;;;;;12.53;9.63;;;11.00;99.90;;;;;;5034714;28;20233;-57
2024/03/06 11:37:11;;;;;;;10.13;8.43;;;11.10;99.90;;;;;;5034851;28;20258;-58
2024/03/06 11:39:38;;;;;;;10.00;8.37;;;11.30;99.90;;;;;;5034805;28;20321;-57
2024/03/06 11:42:08;;;;;;;10.47;8.63;;;11.40;99.90;;;;;;5034640;28;20206;-57
2024/03/06 11:44:35;;;;;;;11.97;9.20;;;11.50;99.90;;;;;;5034179;28;20249;-58
2024/03/06 11:47:03;;;;;;;10.73;9.13;;;11.50;99.90;;;;;;5034636;28;20218;-59
2024/03/06 11:49:33;;;;;;;10.57;9.47;;;11.60;99.90;;;;;;5034283;28;20742;-58
2024/03/06 11:52:02;;;;;;;10.63;9.53;;;11.40;99.90;;;;;;5034934;28;20206;-57
2024/03/06 11:54:31;;;;;;;11.63;9.60;;;11.30;99.90;;;;;;5034305;28;20217;-59
2024/03/06 11:56:59;;;;;;;13.13;10.47;;;11.20;99.90;;;;;;5034220;28;20229;-58
2024/03/06 11:59:27;;;;;;;10.63;9.10;;;11.30;99.90;;;;;;5034349;28;20752;-57
2024/03/06 12:01:54;;;;;;;17.10;12.67;;;11.30;99.90;;;;;;5034309;28;20229;-58
2024/03/06 12:04:22;;;;;;;10.83;9.00;;;11.10;99.90;;;;;;5033796;28;20676;-59
2024/03/06 12:06:49;;;;;;;13.07;9.97;;;11.00;99.90;;;;;;5034123;28;20233;-57
2024/03/06 12:09:16;;;;;;;12.93;9.50;;;10.80;99.90;;;;;;5034259;28;20612;-57
2024/03/06 12:11:44;;;;;;;12.83;10.90;;;10.70;99.90;;;;;;5033978;28;20206;-58
2024/03/06 12:14:16;;;;;;;12.33;9.83;;;10.70;99.90;;;;;;5033582;28;20211;-58
2024/03/06 12:16:43;;;;;;;13.20;10.20;;;10.70;99.90;;;;;;5034061;28;20230;-59
2024/03/06 12:19:10;;;;;;;11.30;9.80;;;10.70;99.90;;;;;;5033894;28;20226;-59
2024/03/06 12:21:37;;;;;;;16.47;14.33;;;10.50;99.90;;;;;;5033943;28;20206;-60
2024/03/06 12:24:06;;;;;;;13.17;10.73;;;10.50;99.90;;;;;;5033767;28;20211;-60
2024/03/06 12:26:32;;;;;;;13.73;10.67;;;10.50;99.90;;;;;;5034128;28;20252;-58
2024/03/06 12:29:08;;;;;;;13.23;10.23;;;10.40;99.90;;;;;;5034046;28;20253;-60
2024/03/06 12:31:36;;;;;;;14.33;11.50;;;10.40;99.90;;;;;;5033713;28;20209;-59
2024/03/06 12:34:03;;;;;;;13.37;11.17;;;10.30;99.90;;;;;;5033712;28;20915;-58
2024/03/06 12:36:31;;;;;;;15.73;11.70;;;10.30;99.90;;;;;;5033669;28;20218;-59
2024/03/06 12:38:59;;;;;;;16.60;11.07;;;10.50;99.90;;;;;;5033861;28;20280;-60
2024/03/06 12:41:27;;;;;;;13.77;11.47;;;10.50;99.90;;;;;;5033841;28;20214;-58
2024/03/06 12:43:54;;;;;;;13.10;11.70;;;10.40;99.90;;;;;;5033495;28;20202;-59
2024/03/06 12:46:22;;;;;;;14.13;11.50;;;10.40;99.90;;;;;;5033313;28;20609;-59
2024/03/06 12:48:49;;;;;;;13.53;11.77;;;10.30;99.90;;;;;;5033464;28;20242;-59
2024/03/06 12:51:16;;;;;;;13.37;11.07;;;10.30;99.90;;;;;;5033368;28;20268;-60
2024/03/06 12:53:42;;;;;;;14.70;11.97;;;10.30;99.90;;;;;;5033632;28;20217;-59